Terminal Aerodrome Forecast
Issued by NWS

Home | Current Version | Previous Version | Text Only | Print | Product List | Glossary On
Versions: 1 2 3 4 5 6 7 8 9 10 11 12 13 14 15 16 17 18 19 20 21 22 23 24 25 26 27 28 29 30
000
FTUS41 KPBZ 181100
TAFFKL
TAF
KFKL 181134Z 1812/1912 26008KT P6SM OVC015
     FM190100 28010G18KT P6SM VCSH OVC015 PROB30 1903/1906 5SM -SN
      BR OVC008
      AMD LTD TO CLD VIS AND WIND=

USA.gov is the U.S. government's official web portal to all federal, state and local government web resources and services.